sensor_id;sensor_type;location;lat;lon;timestamp;pressure;altitude;pressure_sealevel;temperature;humidity
78890;BME280;68279;48.964;14.502;2023-07-16T00:00:12;96374.00;;;20.09;68.07
78890;BME280;68279;48.964;14.502;2023-07-16T00:02:38;96377.78;;;20.04;69.77
78890;BME280;68279;48.964;14.502;2023-07-16T00:05:04;96373.66;;;20.11;68.41
78890;BME280;68279;48.964;14.502;2023-07-16T00:07:30;96382.00;;;20.21;68.43
78890;BME280;68279;48.964;14.502;2023-07-16T00:09:56;96384.03;;;20.24;68.25
78890;BME280;68279;48.964;14.502;2023-07-16T00:12:23;96383.00;;;20.32;67.63
78890;BME280;68279;48.964;14.502;2023-07-16T00:14:49;96376.91;;;20.39;67.67
78890;BME280;68279;48.964;14.502;2023-07-16T00:17:15;96381.31;;;20.44;67.60
78890;BME280;68279;48.964;14.502;2023-07-16T00:19:42;96378.72;;;20.51;66.87
78890;BME280;68279;48.964;14.502;2023-07-16T00:22:09;96383.38;;;20.50;66.97
78890;BME280;68279;48.964;14.502;2023-07-16T00:24:35;96375.94;;;20.47;66.74
78890;BME280;68279;48.964;14.502;2023-07-16T00:27:00;96377.69;;;20.40;67.29
78890;BME280;68279;48.964;14.502;2023-07-16T00:29:26;96367.41;;;20.49;66.97
78890;BME280;68279;48.964;14.502;2023-07-16T00:31:51;96371.50;;;20.58;66.27
78890;BME280;68279;48.964;14.502;2023-07-16T00:34:17;96373.28;;;20.51;66.29
78890;BME280;68279;48.964;14.502;2023-07-16T00:36:43;96368.66;;;20.51;66.80
78890;BME280;68279;48.964;14.502;2023-07-16T00:39:09;96369.25;;;20.64;66.73
78890;BME280;68279;48.964;14.502;2023-07-16T00:41:35;96370.34;;;20.82;65.52
78890;BME280;68279;48.964;14.502;2023-07-16T00:44:02;96367.56;;;21.02;65.05
78890;BME280;68279;48.964;14.502;2023-07-16T00:46:28;96369.97;;;21.07;65.35
78890;BME280;68279;48.964;14.502;2023-07-16T00:48:54;96369.25;;;21.10;64.95
78890;BME280;68279;48.964;14.502;2023-07-16T00:51:22;96360.81;;;21.18;64.05
78890;BME280;68279;48.964;14.502;2023-07-16T00:53:49;96365.84;;;21.16;64.64
78890;BME280;68279;48.964;14.502;2023-07-16T00:56:17;96360.69;;;21.31;64.19
78890;BME280;68279;48.964;14.502;2023-07-16T00:58:45;96358.06;;;21.15;64.70
78890;BME280;68279;48.964;14.502;2023-07-16T01:01:12;96359.50;;;21.09;65.26
78890;BME280;68279;48.964;14.502;2023-07-16T01:03:38;96360.13;;;20.99;65.34
78890;BME280;68279;48.964;14.502;2023-07-16T01:06:17;96365.88;;;20.93;65.50
78890;BME280;68279;48.964;14.502;2023-07-16T01:11:14;96364.78;;;20.75;66.35
78890;BME280;68279;48.964;14.502;2023-07-16T01:13:43;96363.56;;;20.73;66.22
78890;BME280;68279;48.964;14.502;2023-07-16T01:16:23;96376.34;;;20.69;66.45
78890;BME280;68279;48.964;14.502;2023-07-16T01:18:49;96369.63;;;20.62;67.07
78890;BME280;68279;48.964;14.502;2023-07-16T01:21:18;96361.41;;;20.59;67.40
78890;BME280;68279;48.964;14.502;2023-07-16T01:23:59;96371.00;;;20.53;67.93
78890;BME280;68279;48.964;14.502;2023-07-16T01:26:36;96360.97;;;20.57;67.87
78890;BME280;68279;48.964;14.502;2023-07-16T01:32:11;96359.53;;;20.63;67.80
78890;BME280;68279;48.964;14.502;2023-07-16T01:34:39;96370.25;;;20.56;68.40
78890;BME280;68279;48.964;14.502;2023-07-16T01:37:14;96388.09;;;20.53;68.55
78890;BME280;68279;48.964;14.502;2023-07-16T01:39:39;96398.59;;;20.55;68.10
78890;BME280;68279;48.964;14.502;2023-07-16T01:42:05;96424.53;;;20.52;68.47
78890;BME280;68279;48.964;14.502;2023-07-16T01:44:31;96481.56;;;20.33;69.45
78890;BME280;68279;48.964;14.502;2023-07-16T01:49:34;96520.69;;;20.48;68.25
78890;BME280;68279;48.964;14.502;2023-07-16T01:52:02;96524.34;;;20.55;67.98
78890;BME280;68279;48.964;14.502;2023-07-16T01:54:29;96553.22;;;20.44;68.97
78890;BME280;68279;48.964;14.502;2023-07-16T01:56:54;96532.28;;;20.45;68.49
78890;BME280;68279;48.964;14.502;2023-07-16T01:59:20;96545.03;;;20.25;69.58
78890;BME280;68279;48.964;14.502;2023-07-16T02:01:46;96546.44;;;20.19;69.82
78890;BME280;68279;48.964;14.502;2023-07-16T02:04:11;96557.34;;;20.22;69.29
78890;BME280;68279;48.964;14.502;2023-07-16T02:06:45;96567.19;;;20.11;70.59
78890;BME280;68279;48.964;14.502;2023-07-16T02:09:12;96557.78;;;19.89;70.80
78890;BME280;68279;48.964;14.502;2023-07-16T02:11:39;96580.63;;;19.72;71.86
78890;BME280;68279;48.964;14.502;2023-07-16T02:14:04;96583.31;;;19.57;71.15
78890;BME280;68279;48.964;14.502;2023-07-16T02:16:30;96600.59;;;19.52;72.07
78890;BME280;68279;48.964;14.502;2023-07-16T02:18:55;96612.25;;;19.37;73.77
78890;BME280;68279;48.964;14.502;2023-07-16T02:21:22;96601.78;;;19.23;73.59
78890;BME280;68279;48.964;14.502;2023-07-16T02:23:48;96619.94;;;19.35;72.52
78890;BME280;68279;48.964;14.502;2023-07-16T02:26:14;96619.13;;;19.94;73.49
78890;BME280;68279;48.964;14.502;2023-07-16T02:28:41;96631.91;;;20.25;72.20
78890;BME280;68279;48.964;14.502;2023-07-16T02:31:09;96629.63;;;20.58;71.13
78890;BME280;68279;48.964;14.502;2023-07-16T02:33:36;96640.00;;;20.72;70.70
78890;BME280;68279;48.964;14.502;2023-07-16T02:36:03;96646.88;;;20.85;69.78
78890;BME280;68279;48.964;14.502;2023-07-16T02:38:29;96651.19;;;20.86;69.02
78890;BME280;68279;48.964;14.502;2023-07-16T02:40:57;96658.25;;;21.10;66.88
78890;BME280;68279;48.964;14.502;2023-07-16T02:43:23;96658.84;;;21.19;66.16
78890;BME280;68279;48.964;14.502;2023-07-16T02:45:51;96655.00;;;21.40;64.37
78890;BME280;68279;48.964;14.502;2023-07-16T02:48:19;96664.38;;;21.42;63.70
78890;BME280;68279;48.964;14.502;2023-07-16T02:50:45;96663.53;;;21.38;63.59
78890;BME280;68279;48.964;14.502;2023-07-16T02:53:11;96677.41;;;21.53;62.59
78890;BME280;68279;48.964;14.502;2023-07-16T02:55:37;96684.50;;;21.57;62.24
78890;BME280;68279;48.964;14.502;2023-07-16T02:58:03;96679.44;;;21.78;61.05
78890;BME280;68279;48.964;14.502;2023-07-16T03:00:30;96683.69;;;21.76;61.40
78890;BME280;68279;48.964;14.502;2023-07-16T03:02:57;96684.66;;;21.87;60.45
78890;BME280;68279;48.964;14.502;2023-07-16T03:05:25;96695.31;;;21.96;60.32
78890;BME280;68279;48.964;14.502;2023-07-16T03:07:51;96702.22;;;22.09;59.87
78890;BME280;68279;48.964;14.502;2023-07-16T03:10:17;96720.31;;;22.21;59.55
78890;BME280;68279;48.964;14.502;2023-07-16T03:12:42;96723.25;;;22.35;59.07
78890;BME280;68279;48.964;14.502;2023-07-16T03:15:09;96731.66;;;22.49;58.63
78890;BME280;68279;48.964;14.502;2023-07-16T03:17:36;96737.50;;;22.48;58.71
78890;BME280;68279;48.964;14.502;2023-07-16T03:20:08;96744.13;;;22.50;58.70
78890;BME280;68279;48.964;14.502;2023-07-16T03:22:33;96737.53;;;22.51;58.74
78890;BME280;68279;48.964;14.502;2023-07-16T03:25:00;96743.78;;;22.52;58.69
78890;BME280;68279;48.964;14.502;2023-07-16T03:27:28;96741.53;;;22.57;58.61
78890;BME280;68279;48.964;14.502;2023-07-16T03:29:54;96739.19;;;22.56;58.65
78890;BME280;68279;48.964;14.502;2023-07-16T03:32:20;96747.22;;;22.49;58.66
78890;BME280;68279;48.964;14.502;2023-07-16T03:34:46;96756.19;;;22.49;58.52
78890;BME280;68279;48.964;14.502;2023-07-16T03:37:11;96765.16;;;22.50;58.56
78890;BME280;68279;48.964;14.502;2023-07-16T03:39:37;96776.44;;;22.48;58.46
78890;BME280;68279;48.964;14.502;2023-07-16T03:42:02;96809.97;;;22.52;58.49
78890;BME280;68279;48.964;14.502;2023-07-16T03:44:29;96837.69;;;22.54;58.45
78890;BME280;68279;48.964;14.502;2023-07-16T03:46:55;96851.31;;;22.54;58.61
78890;BME280;68279;48.964;14.502;2023-07-16T03:49:22;96891.44;;;22.57;58.95
78890;BME280;68279;48.964;14.502;2023-07-16T03:51:48;96901.72;;;22.64;58.58
78890;BME280;68279;48.964;14.502;2023-07-16T03:54:14;96912.63;;;22.64;59.11
78890;BME280;68279;48.964;14.502;2023-07-16T03:56:42;96928.97;;;22.64;59.00
78890;BME280;68279;48.964;14.502;2023-07-16T03:59:08;96918.19;;;22.71;58.97
78890;BME280;68279;48.964;14.502;2023-07-16T04:01:34;96915.81;;;22.70;59.39
78890;BME280;68279;48.964;14.502;2023-07-16T04:03:59;96927.16;;;22.72;59.19
78890;BME280;68279;48.964;14.502;2023-07-16T04:06:31;96912.75;;;22.71;59.33
78890;BME280;68279;48.964;14.502;2023-07-16T04:09:04;96918.63;;;22.73;59.37
78890;BME280;68279;48.964;14.502;2023-07-16T04:11:30;96918.63;;;22.73;59.47
78890;BME280;68279;48.964;14.502;2023-07-16T04:13:55;96927.09;;;22.68;59.77
78890;BME280;68279;48.964;14.502;2023-07-16T04:16:21;96930.75;;;22.76;59.79
78890;BME280;68279;48.964;14.502;2023-07-16T04:18:53;96934.56;;;22.71;60.32
78890;BME280;68279;48.964;14.502;2023-07-16T04:21:18;96957.81;;;22.65;60.59
78890;BME280;68279;48.964;14.502;2023-07-16T04:23:44;96964.31;;;22.60;61.26
78890;BME280;68279;48.964;14.502;2023-07-16T04:26:09;96970.09;;;22.55;61.50
78890;BME280;68279;48.964;14.502;2023-07-16T04:28:35;96976.16;;;22.49;62.13
78890;BME280;68279;48.964;14.502;2023-07-16T04:31:01;96988.22;;;22.48;62.55
78890;BME280;68279;48.964;14.502;2023-07-16T04:33:30;97001.44;;;22.46;62.25
78890;BME280;68279;48.964;14.502;2023-07-16T04:35:56;97014.88;;;22.19;64.77
78890;BME280;68279;48.964;14.502;2023-07-16T04:38:22;97008.84;;;21.94;66.09
78890;BME280;68279;48.964;14.502;2023-07-16T04:40:47;97015.69;;;21.88;66.74
78890;BME280;68279;48.964;14.502;2023-07-16T04:43:13;97010.25;;;21.72;67.45
78890;BME280;68279;48.964;14.502;2023-07-16T04:45:38;97015.91;;;21.48;69.36
78890;BME280;68279;48.964;14.502;2023-07-16T04:48:05;97027.28;;;21.22;71.92
78890;BME280;68279;48.964;14.502;2023-07-16T04:50:30;97030.16;;;20.57;77.17
78890;BME280;68279;48.964;14.502;2023-07-16T04:52:56;97042.47;;;20.02;82.94
78890;BME280;68279;48.964;14.502;2023-07-16T04:55:24;97064.31;;;19.24;88.86
78890;BME280;68279;48.964;14.502;2023-07-16T04:57:49;97059.31;;;19.14;88.83
78890;BME280;68279;48.964;14.502;2023-07-16T05:00:19;97048.22;;;19.07;90.34
78890;BME280;68279;48.964;14.502;2023-07-16T05:02:48;97037.59;;;19.02;91.99
78890;BME280;68279;48.964;14.502;2023-07-16T05:05:19;97039.59;;;18.92;92.81
78890;BME280;68279;48.964;14.502;2023-07-16T05:07:45;97043.75;;;18.90;93.84
78890;BME280;68279;48.964;14.502;2023-07-16T05:10:12;97051.66;;;18.83;95.01
78890;BME280;68279;48.964;14.502;2023-07-16T05:12:38;97047.88;;;18.75;95.50
78890;BME280;68279;48.964;14.502;2023-07-16T05:15:04;97045.03;;;18.72;95.80
78890;BME280;68279;48.964;14.502;2023-07-16T05:17:31;97048.41;;;18.68;96.60
78890;BME280;68279;48.964;14.502;2023-07-16T05:19:58;97048.75;;;18.67;97.96
78890;BME280;68279;48.964;14.502;2023-07-16T05:22:24;97044.78;;;18.64;97.64
78890;BME280;68279;48.964;14.502;2023-07-16T05:24:50;97031.38;;;18.68;97.72
78890;BME280;68279;48.964;14.502;2023-07-16T05:27:16;97044.13;;;18.67;96.83
78890;BME280;68279;48.964;14.502;2023-07-16T05:29:45;97040.28;;;18.68;97.68
78890;BME280;68279;48.964;14.502;2023-07-16T05:32:10;97057.72;;;18.80;98.64
78890;BME280;68279;48.964;14.502;2023-07-16T05:34:39;97061.56;;;18.79;97.15
78890;BME280;68279;48.964;14.502;2023-07-16T05:37:05;97076.69;;;18.80;97.52
78890;BME280;68279;48.964;14.502;2023-07-16T05:39:31;97078.59;;;18.79;96.58
78890;BME280;68279;48.964;14.502;2023-07-16T05:41:56;97081.53;;;18.74;97.31
78890;BME280;68279;48.964;14.502;2023-07-16T05:44:26;97085.81;;;18.75;97.38
78890;BME280;68279;48.964;14.502;2023-07-16T05:46:52;97098.84;;;18.82;98.22
78890;BME280;68279;48.964;14.502;2023-07-16T05:49:17;97096.84;;;18.91;97.84
78890;BME280;68279;48.964;14.502;2023-07-16T05:51:47;97099.28;;;19.05;96.81
78890;BME280;68279;48.964;14.502;2023-07-16T05:54:14;97097.06;;;19.19;97.40
78890;BME280;68279;48.964;14.502;2023-07-16T05:56:46;97093.41;;;19.48;96.16
78890;BME280;68279;48.964;14.502;2023-07-16T05:59:12;97087.56;;;19.58;95.97
78890;BME280;68279;48.964;14.502;2023-07-16T06:01:43;97088.09;;;19.51;95.08
78890;BME280;68279;48.964;14.502;2023-07-16T06:04:11;97094.19;;;19.36;95.37
78890;BME280;68279;48.964;14.502;2023-07-16T06:06:38;97105.84;;;19.49;96.61
78890;BME280;68279;48.964;14.502;2023-07-16T06:09:04;97104.00;;;19.62;97.18
78890;BME280;68279;48.964;14.502;2023-07-16T06:11:29;97105.09;;;19.61;95.83
78890;BME280;68279;48.964;14.502;2023-07-16T06:13:55;97106.72;;;19.74;96.06
78890;BME280;68279;48.964;14.502;2023-07-16T06:16:23;97101.88;;;19.79;94.87
78890;BME280;68279;48.964;14.502;2023-07-16T06:18:48;97098.22;;;19.75;96.04
78890;BME280;68279;48.964;14.502;2023-07-16T06:21:16;97104.09;;;19.77;95.50
78890;BME280;68279;48.964;14.502;2023-07-16T06:23:42;97100.06;;;19.84;95.12
78890;BME280;68279;48.964;14.502;2023-07-16T06:26:07;97082.88;;;19.92;92.49
78890;BME280;68279;48.964;14.502;2023-07-16T06:28:34;97091.09;;;19.95;92.96
78890;BME280;68279;48.964;14.502;2023-07-16T06:30:59;97089.88;;;20.17;93.17
78890;BME280;68279;48.964;14.502;2023-07-16T06:33:25;97083.19;;;20.02;93.39
78890;BME280;68279;48.964;14.502;2023-07-16T06:35:52;97093.72;;;19.92;95.18
78890;BME280;68279;48.964;14.502;2023-07-16T06:38:22;97100.03;;;19.96;95.55
78890;BME280;68279;48.964;14.502;2023-07-16T06:40:54;97094.41;;;20.01;95.53
78890;BME280;68279;48.964;14.502;2023-07-16T06:43:20;97087.84;;;20.02;96.73
78890;BME280;68279;48.964;14.502;2023-07-16T06:45:49;97082.97;;;20.44;97.17
78890;BME280;68279;48.964;14.502;2023-07-16T06:48:22;97085.50;;;20.65;93.45
78890;BME280;68279;48.964;14.502;2023-07-16T06:50:49;97101.41;;;20.51;92.92
78890;BME280;68279;48.964;14.502;2023-07-16T06:53:16;97090.84;;;20.49;92.81
78890;BME280;68279;48.964;14.502;2023-07-16T06:55:51;97097.13;;;20.50;92.39
78890;BME280;68279;48.964;14.502;2023-07-16T06:58:33;97095.97;;;20.51;93.10
78890;BME280;68279;48.964;14.502;2023-07-16T07:01:00;97099.53;;;20.67;92.01
78890;BME280;68279;48.964;14.502;2023-07-16T07:03:27;97098.28;;;20.77;90.91
78890;BME280;68279;48.964;14.502;2023-07-16T07:05:52;97103.03;;;20.80;91.94
78890;BME280;68279;48.964;14.502;2023-07-16T07:08:21;97117.72;;;20.91;89.44
78890;BME280;68279;48.964;14.502;2023-07-16T07:10:49;97113.28;;;20.99;90.32
78890;BME280;68279;48.964;14.502;2023-07-16T07:13:15;97115.16;;;21.10;92.32
78890;BME280;68279;48.964;14.502;2023-07-16T07:15:43;97124.38;;;21.34;89.31
78890;BME280;68279;48.964;14.502;2023-07-16T07:18:09;97132.25;;;21.11;84.41
78890;BME280;68279;48.964;14.502;2023-07-16T07:20:36;97128.88;;;21.02;83.45
78890;BME280;68279;48.964;14.502;2023-07-16T07:23:03;97138.66;;;21.03;86.67
78890;BME280;68279;48.964;14.502;2023-07-16T07:25:59;97136.72;;;21.03;83.49
78890;BME280;68279;48.964;14.502;2023-07-16T07:28:27;97132.66;;;21.25;83.97
78890;BME280;68279;48.964;14.502;2023-07-16T07:30:53;97125.75;;;21.71;81.38
78890;BME280;68279;48.964;14.502;2023-07-16T07:33:20;97119.59;;;21.90;78.63
78890;BME280;68279;48.964;14.502;2023-07-16T07:35:53;97117.34;;;21.92;79.02
78890;BME280;68279;48.964;14.502;2023-07-16T07:38:20;97128.34;;;22.63;77.77
78890;BME280;68279;48.964;14.502;2023-07-16T07:40:46;97131.41;;;22.61;77.52
78890;BME280;68279;48.964;14.502;2023-07-16T07:43:12;97144.34;;;22.99;73.35
78890;BME280;68279;48.964;14.502;2023-07-16T07:45:43;97143.84;;;23.13;73.46
78890;BME280;68279;48.964;14.502;2023-07-16T07:48:20;97144.63;;;23.13;71.73
78890;BME280;68279;48.964;14.502;2023-07-16T07:51:06;97143.91;;;23.36;70.88
78890;BME280;68279;48.964;14.502;2023-07-16T07:53:57;97150.06;;;23.71;69.14
78890;BME280;68279;48.964;14.502;2023-07-16T07:56:30;97146.91;;;23.31;72.17
78890;BME280;68279;48.964;14.502;2023-07-16T07:58:57;97147.13;;;24.03;70.14
78890;BME280;68279;48.964;14.502;2023-07-16T08:01:24;97143.22;;;24.04;65.40
78890;BME280;68279;48.964;14.502;2023-07-16T08:03:51;97151.66;;;23.53;68.42
78890;BME280;68279;48.964;14.502;2023-07-16T08:06:25;97143.88;;;23.74;67.36
78890;BME280;68279;48.964;14.502;2023-07-16T08:08:51;97136.06;;;23.96;66.49
78890;BME280;68279;48.964;14.502;2023-07-16T08:11:19;97124.19;;;24.11;67.43
78890;BME280;68279;48.964;14.502;2023-07-16T08:13:50;97126.56;;;24.36;68.77
78890;BME280;68279;48.964;14.502;2023-07-16T08:16:23;97114.41;;;24.60;64.43
78890;BME280;68279;48.964;14.502;2023-07-16T08:19:03;97127.16;;;24.02;66.25
78890;BME280;68279;48.964;14.502;2023-07-16T08:21:32;97120.53;;;24.26;63.71
78890;BME280;68279;48.964;14.502;2023-07-16T08:24:09;97115.41;;;24.74;64.62
78890;BME280;68279;48.964;14.502;2023-07-16T08:26:44;97114.53;;;25.30;62.55
78890;BME280;68279;48.964;14.502;2023-07-16T08:29:16;97116.16;;;25.35;60.79
78890;BME280;68279;48.964;14.502;2023-07-16T08:31:41;97120.03;;;25.30;58.46
78890;BME280;68279;48.964;14.502;2023-07-16T08:34:11;97108.78;;;25.42;59.41
78890;BME280;68279;48.964;14.502;2023-07-16T08:36:37;97112.88;;;25.22;59.67
78890;BME280;68279;48.964;14.502;2023-07-16T08:39:05;97119.13;;;25.56;57.02
78890;BME280;68279;48.964;14.502;2023-07-16T08:41:32;97120.13;;;25.75;56.70
78890;BME280;68279;48.964;14.502;2023-07-16T08:43:59;97115.34;;;26.12;57.40
78890;BME280;68279;48.964;14.502;2023-07-16T08:46:25;97115.25;;;26.02;57.15
78890;BME280;68279;48.964;14.502;2023-07-16T08:48:53;97118.97;;;25.79;55.69
78890;BME280;68279;48.964;14.502;2023-07-16T08:51:20;97121.88;;;25.56;56.54
78890;BME280;68279;48.964;14.502;2023-07-16T08:53:47;97119.03;;;25.49;57.38
78890;BME280;68279;48.964;14.502;2023-07-16T08:56:14;97121.41;;;25.17;57.11
78890;BME280;68279;48.964;14.502;2023-07-16T08:58:43;97127.19;;;25.42;57.05
78890;BME280;68279;48.964;14.502;2023-07-16T09:01:12;97131.16;;;25.82;56.34
78890;BME280;68279;48.964;14.502;2023-07-16T09:03:39;97123.56;;;26.12;56.05
78890;BME280;68279;48.964;14.502;2023-07-16T09:06:05;97121.31;;;26.80;53.38
78890;BME280;68279;48.964;14.502;2023-07-16T09:08:30;97126.00;;;27.74;52.24
78890;BME280;68279;48.964;14.502;2023-07-16T09:10:57;97121.75;;;28.30;52.11
78890;BME280;68279;48.964;14.502;2023-07-16T09:13:25;97114.94;;;26.62;53.43
78890;BME280;68279;48.964;14.502;2023-07-16T09:15:54;97119.84;;;26.35;55.18
78890;BME280;68279;48.964;14.502;2023-07-16T09:18:32;97117.97;;;26.42;54.71
78890;BME280;68279;48.964;14.502;2023-07-16T09:20:59;97123.06;;;26.44;55.17
78890;BME280;68279;48.964;14.502;2023-07-16T09:23:30;97128.34;;;26.22;57.48
78890;BME280;68279;48.964;14.502;2023-07-16T09:26:03;97136.56;;;26.70;56.74
78890;BME280;68279;48.964;14.502;2023-07-16T09:28:32;97132.34;;;26.91;54.59
78890;BME280;68279;48.964;14.502;2023-07-16T09:31:04;97130.75;;;28.16;52.01
78890;BME280;68279;48.964;14.502;2023-07-16T09:33:32;97126.81;;;28.28;50.60
78890;BME280;68279;48.964;14.502;2023-07-16T09:36:04;97135.03;;;27.88;51.12
78890;BME280;68279;48.964;14.502;2023-07-16T09:38:32;97130.25;;;27.50;52.32
78890;BME280;68279;48.964;14.502;2023-07-16T09:41:05;97127.59;;;26.80;53.75
78890;BME280;68279;48.964;14.502;2023-07-16T09:43:35;97125.56;;;26.70;53.87
78890;BME280;68279;48.964;14.502;2023-07-16T09:46:01;97124.78;;;27.60;52.04
78890;BME280;68279;48.964;14.502;2023-07-16T09:48:29;97118.94;;;27.80;50.43
78890;BME280;68279;48.964;14.502;2023-07-16T09:50:56;97128.38;;;27.75;48.65
78890;BME280;68279;48.964;14.502;2023-07-16T09:53:30;97125.53;;;27.50;49.71
78890;BME280;68279;48.964;14.502;2023-07-16T09:56:02;97139.28;;;27.54;50.96
78890;BME280;68279;48.964;14.502;2023-07-16T09:58:43;97128.31;;;27.64;52.58
78890;BME280;68279;48.964;14.502;2023-07-16T10:01:16;97128.38;;;28.14;51.39
78890;BME280;68279;48.964;14.502;2023-07-16T10:03:50;97122.91;;;28.32;50.47
78890;BME280;68279;48.964;14.502;2023-07-16T10:06:20;97131.91;;;28.15;50.86
78890;BME280;68279;48.964;14.502;2023-07-16T10:09:02;97135.03;;;28.74;47.30
78890;BME280;68279;48.964;14.502;2023-07-16T10:11:36;97127.13;;;28.94;44.85
78890;BME280;68279;48.964;14.502;2023-07-16T10:14:02;97122.50;;;29.64;42.55
78890;BME280;68279;48.964;14.502;2023-07-16T10:16:35;97127.41;;;29.94;43.14
78890;BME280;68279;48.964;14.502;2023-07-16T10:19:04;97116.03;;;29.15;45.43
78890;BME280;68279;48.964;14.502;2023-07-16T10:21:37;97119.66;;;28.84;45.83
78890;BME280;68279;48.964;14.502;2023-07-16T10:24:04;97112.41;;;29.32;46.45
78890;BME280;68279;48.964;14.502;2023-07-16T10:26:33;97125.75;;;30.04;43.36
78890;BME280;68279;48.964;14.502;2023-07-16T10:29:04;97122.03;;;28.85;46.63
78890;BME280;68279;48.964;14.502;2023-07-16T10:31:36;97126.72;;;29.02;44.63
78890;BME280;68279;48.964;14.502;2023-07-16T10:34:04;97133.44;;;28.91;44.63
78890;BME280;68279;48.964;14.502;2023-07-16T10:36:40;97137.72;;;27.49;46.47
78890;BME280;68279;48.964;14.502;2023-07-16T10:39:12;97136.78;;;27.13;48.18
78890;BME280;68279;48.964;14.502;2023-07-16T10:41:45;97130.94;;;27.25;47.90
78890;BME280;68279;48.964;14.502;2023-07-16T10:44:14;97136.47;;;27.32;48.11
78890;BME280;68279;48.964;14.502;2023-07-16T10:46:45;97131.88;;;27.83;49.36
78890;BME280;68279;48.964;14.502;2023-07-16T10:49:11;97134.16;;;27.45;47.03
78890;BME280;68279;48.964;14.502;2023-07-16T10:51:44;97115.91;;;27.01;49.21
78890;BME280;68279;48.964;14.502;2023-07-16T10:54:11;97119.34;;;27.75;49.88
78890;BME280;68279;48.964;14.502;2023-07-16T10:56:38;97123.66;;;27.79;48.37
78890;BME280;68279;48.964;14.502;2023-07-16T10:59:03;97117.75;;;27.81;48.21
78890;BME280;68279;48.964;14.502;2023-07-16T11:01:33;97112.28;;;28.06;46.73
78890;BME280;68279;48.964;14.502;2023-07-16T11:04:07;97113.84;;;28.42;48.06
78890;BME280;68279;48.964;14.502;2023-07-16T11:06:35;97100.16;;;29.44;45.17
78890;BME280;68279;48.964;14.502;2023-07-16T11:09:15;97106.69;;;30.27;45.26
78890;BME280;68279;48.964;14.502;2023-07-16T11:11:41;97093.03;;;30.13;39.91
78890;BME280;68279;48.964;14.502;2023-07-16T11:14:13;97098.00;;;30.29;41.93
78890;BME280;68279;48.964;14.502;2023-07-16T11:16:52;97102.47;;;30.12;40.61
78890;BME280;68279;48.964;14.502;2023-07-16T11:22:26;97089.81;;;30.59;40.87
78890;BME280;68279;48.964;14.502;2023-07-16T11:24:54;97093.94;;;29.96;40.90
78890;BME280;68279;48.964;14.502;2023-07-16T11:27:26;97086.34;;;29.48;42.62
78890;BME280;68279;48.964;14.502;2023-07-16T11:29:56;97073.56;;;30.27;43.22
78890;BME280;68279;48.964;14.502;2023-07-16T11:32:46;97069.91;;;29.93;41.04
78890;BME280;68279;48.964;14.502;2023-07-16T11:35:20;97073.16;;;30.29;39.98
78890;BME280;68279;48.964;14.502;2023-07-16T11:37:46;97063.06;;;29.59;40.78
78890;BME280;68279;48.964;14.502;2023-07-16T11:40:17;97058.25;;;30.23;41.03
78890;BME280;68279;48.964;14.502;2023-07-16T11:43:09;97062.53;;;30.27;39.96
78890;BME280;68279;48.964;14.502;2023-07-16T11:45:37;97069.84;;;30.86;38.52
78890;BME280;68279;48.964;14.502;2023-07-16T11:48:04;97060.97;;;30.64;38.88
78890;BME280;68279;48.964;14.502;2023-07-16T11:50:30;97075.06;;;29.90;39.41
78890;BME280;68279;48.964;14.502;2023-07-16T11:53:00;97074.53;;;30.10;41.07
78890;BME280;68279;48.964;14.502;2023-07-16T11:55:27;97065.81;;;30.15;39.57
78890;BME280;68279;48.964;14.502;2023-07-16T11:57:59;97068.34;;;29.95;37.98
78890;BME280;68279;48.964;14.502;2023-07-16T12:00:25;97063.19;;;30.42;39.02
78890;BME280;68279;48.964;14.502;2023-07-16T12:02:54;97064.88;;;31.35;37.08
78890;BME280;68279;48.964;14.502;2023-07-16T12:05:41;97062.94;;;31.85;38.28
78890;BME280;68279;48.964;14.502;2023-07-16T12:08:07;97066.66;;;31.18;36.80
78890;BME280;68279;48.964;14.502;2023-07-16T12:10:45;97058.94;;;30.71;37.19
78890;BME280;68279;48.964;14.502;2023-07-16T12:13:17;97049.25;;;30.90;38.13
78890;BME280;68279;48.964;14.502;2023-07-16T12:15:45;97040.38;;;31.06;38.32
78890;BME280;68279;48.964;14.502;2023-07-16T12:18:16;97045.28;;;32.03;37.81
78890;BME280;68279;48.964;14.502;2023-07-16T12:20:41;97046.41;;;32.29;35.86
78890;BME280;68279;48.964;14.502;2023-07-16T12:23:09;97034.16;;;31.56;35.51
78890;BME280;68279;48.964;14.502;2023-07-16T12:25:40;97042.44;;;32.06;38.63
78890;BME280;68279;48.964;14.502;2023-07-16T12:28:13;97047.50;;;31.88;35.35
78890;BME280;68279;48.964;14.502;2023-07-16T12:30:47;97039.88;;;32.62;35.52
78890;BME280;68279;48.964;14.502;2023-07-16T12:33:14;97040.91;;;32.68;36.02
78890;BME280;68279;48.964;14.502;2023-07-16T12:35:45;97049.06;;;32.36;34.34
78890;BME280;68279;48.964;14.502;2023-07-16T12:38:21;97043.22;;;32.93;36.75
78890;BME280;68279;48.964;14.502;2023-07-16T12:41:08;97043.13;;;33.17;33.75
78890;BME280;68279;48.964;14.502;2023-07-16T12:43:34;97037.38;;;33.96;34.20
78890;BME280;68279;48.964;14.502;2023-07-16T12:46:22;97036.38;;;33.54;34.12
78890;BME280;68279;48.964;14.502;2023-07-16T12:48:50;97039.00;;;33.77;33.70
78890;BME280;68279;48.964;14.502;2023-07-16T12:51:17;97037.16;;;34.20;34.26
78890;BME280;68279;48.964;14.502;2023-07-16T12:53:51;97024.56;;;34.31;31.62
78890;BME280;68279;48.964;14.502;2023-07-16T12:56:19;97037.25;;;34.00;34.82
78890;BME280;68279;48.964;14.502;2023-07-16T12:58:50;97034.09;;;34.47;33.26
78890;BME280;68279;48.964;14.502;2023-07-16T13:01:29;97032.00;;;34.51;32.01
78890;BME280;68279;48.964;14.502;2023-07-16T13:03:57;97029.06;;;34.25;31.17
78890;BME280;68279;48.964;14.502;2023-07-16T13:06:27;97030.13;;;34.60;31.22
78890;BME280;68279;48.964;14.502;2023-07-16T13:08:55;97020.84;;;34.80;30.14